Latest  Newer  Older  Last 2 hours animation  Current image  Latest image 
Rain/snow radar  Infrared sat images 
Real-time lightning map

All time is UTC (add 2 hours to UTC in wintertime, 3 hours to UTC in DST for Latvia local time)

2021/01/27 17:20 EVRA 271720Z 30005KT 260V340 9999 -SN SCT008 BKN011 OVC017 00/M00 Q1003 R36/490393 NOSIG
2021/01/27 17:20 EVLA 271720Z AUTO 32005KT 290V350 9999 BKN022/// OVC026/// 01/M03 Q1007
2021/01/27 17:20 EVVA 271720Z AUTO 29009KT 9999 OVC033 01/M00 Q1005
2021/01/27 17:20 EYKA 271720Z 28007KT 250V330 9999 -SNRA SCT011 BKN016 OVC040 00/M02 Q1005 R08/490493
2021/01/27 17:20 EYPA 271720Z AUTO 30004KT 240V010 9999 OVC021/// 01/M03 Q1008
2021/01/27 17:20 EYSA 271720Z 28011KT 9999 BKN007 OVC013 M00/M01 Q1005 R14L/29//95 R14R/29//95 GRN NOSIG
2021/01/27 17:20 EYVI 271720Z 29010KT 2600 SN OVC003 M00/M01 Q1004 R19/5/0294 NOSIG
2021/01/27 16:20 EEKA 271620Z 33012KT 5000 -SN BKN013 OVC025 M00/M01 Q1002
2021/01/27 17:20 EEKE 271720Z 31006KT 270V360 9999 FEW008 SCT021 BKN026 00/M00 Q1003 R17/290195

2021/01/27 17:20 EETN 271720Z 30006KT 9999 OVC003 01/00 Q1000 R08/690294 TEMPO 3000 SN
2021/01/27 17:20 EETU 271720Z AUTO 21003KT 4800 BR OVC010/// 00/00 Q1000
   RIGA AIRPORT     EVRA               56 55N  023 58E   10   X     T          6 LV
   LIEPAJA INTL     EVLA        26406  56 31N  021 06E    4   X                8 LV
   VENTPILS         EVVA               57 21N  021 33E    6   X                8 LV
   KAUNAS           EYKA               54 54N  023 55E   77   X     T          6 LT
   PALANGA INTL     EYPA               55 55N  021 03E   10   X                6 LT
   SIAULIAI INTL    EYSA               55 54N  023 24E  135   X     T          6 LT
   VILNIUS INTL     EYVI        26730  54 38N  025 17E  197   X     T          6 LT
   KARDLA           EEKA        26116  58 59N  022 50E    4   X                8 EE
   KURESSAARE       EEKE               58 14N  022 31E    4   X                8 EE
   PARNU            EEPU               58 25N  024 28E   14   X                8 EE
   TALLINN          EETN        26038  59 24N  024 49E   40   X     T          8 EE
   TARTU            EETU               58 19N  026 41E   67   X                8 EE

cloud coverage image from sat24.com and METAR data from weather.noaa.gov